sensor_id;sensor_type;location;lat;lon;timestamp;P1;durP1;ratioP1;P2;durP2;ratioP2
75087;SDS011;63664;44.868;40.600;2022-10-22T00:02:02;5.95;;;3.70;;
75087;SDS011;63664;44.868;40.600;2022-10-22T00:04:32;9.98;;;4.63;;
75087;SDS011;63664;44.868;40.600;2022-10-22T00:06:59;10.20;;;4.72;;
75087;SDS011;63664;44.868;40.600;2022-10-22T00:09:26;5.68;;;4.40;;
75087;SDS011;63664;44.868;40.600;2022-10-22T00:11:52;6.20;;;4.47;;
75087;SDS011;63664;44.868;40.600;2022-10-22T00:14:18;6.53;;;4.03;;
75087;SDS011;63664;44.868;40.600;2022-10-22T00:16:45;9.30;;;4.47;;
75087;SDS011;63664;44.868;40.600;2022-10-22T00:19:11;5.85;;;3.47;;
75087;SDS011;63664;44.868;40.600;2022-10-22T00:21:40;6.43;;;3.90;;
75087;SDS011;63664;44.868;40.600;2022-10-22T00:24:06;6.13;;;3.83;;
75087;SDS011;63664;44.868;40.600;2022-10-22T00:26:33;5.75;;;3.80;;
75087;SDS011;63664;44.868;40.600;2022-10-22T00:28:59;7.35;;;3.92;;
75087;SDS011;63664;44.868;40.600;2022-10-22T00:31:29;11.93;;;4.75;;
75087;SDS011;63664;44.868;40.600;2022-10-22T00:33:59;7.18;;;4.47;;
75087;SDS011;63664;44.868;40.600;2022-10-22T00:36:26;5.03;;;4.05;;
75087;SDS011;63664;44.868;40.600;2022-10-22T00:38:52;9.02;;;3.95;;
75087;SDS011;63664;44.868;40.600;2022-10-22T00:41:18;6.07;;;3.92;;
75087;SDS011;63664;44.868;40.600;2022-10-22T00:43:52;7.95;;;4.20;;
75087;SDS011;63664;44.868;40.600;2022-10-22T00:46:24;7.70;;;4.50;;
75087;SDS011;63664;44.868;40.600;2022-10-22T00:48:51;8.88;;;4.05;;
75087;SDS011;63664;44.868;40.600;2022-10-22T00:51:19;6.53;;;3.92;;
75087;SDS011;63664;44.868;40.600;2022-10-22T00:53:51;6.18;;;3.80;;
75087;SDS011;63664;44.868;40.600;2022-10-22T00:56:23;8.45;;;3.50;;
75087;SDS011;63664;44.868;40.600;2022-10-22T00:58:52;5.22;;;3.40;;
75087;SDS011;63664;44.868;40.600;2022-10-22T01:01:23;5.30;;;3.63;;
75087;SDS011;63664;44.868;40.600;2022-10-22T01:06:22;6.45;;;4.10;;
75087;SDS011;63664;44.868;40.600;2022-10-22T01:08:54;12.45;;;4.30;;
75087;SDS011;63664;44.868;40.600;2022-10-22T01:11:41;11.57;;;3.65;;
75087;SDS011;63664;44.868;40.600;2022-10-22T01:23:01;6.38;;;4.30;;
75087;SDS011;63664;44.868;40.600;2022-10-22T01:25:34;8.02;;;4.40;;
75087;SDS011;63664;44.868;40.600;2022-10-22T01:31:05;8.48;;;3.35;;
75087;SDS011;63664;44.868;40.600;2022-10-22T01:33:33;5.38;;;3.60;;
75087;SDS011;63664;44.868;40.600;2022-10-22T01:36:01;5.07;;;3.47;;
75087;SDS011;63664;44.868;40.600;2022-10-22T01:38:29;5.22;;;3.45;;
75087;SDS011;63664;44.868;40.600;2022-10-22T01:40:57;8.65;;;3.78;;
75087;SDS011;63664;44.868;40.600;2022-10-22T01:43:24;10.75;;;4.40;;
75087;SDS011;63664;44.868;40.600;2022-10-22T01:45:52;8.20;;;4.32;;
75087;SDS011;63664;44.868;40.600;2022-10-22T02:07:49;5.55;;;4.15;;
75087;SDS011;63664;44.868;40.600;2022-10-22T02:10:20;6.63;;;3.67;;
75087;SDS011;63664;44.868;40.600;2022-10-22T02:12:49;8.88;;;4.32;;
75087;SDS011;63664;44.868;40.600;2022-10-22T02:15:18;5.47;;;3.90;;
75087;SDS011;63664;44.868;40.600;2022-10-22T02:17:45;6.57;;;3.90;;
75087;SDS011;63664;44.868;40.600;2022-10-22T02:20:17;9.93;;;3.63;;
75087;SDS011;63664;44.868;40.600;2022-10-22T02:22:47;7.70;;;4.28;;
75087;SDS011;63664;44.868;40.600;2022-10-22T02:25:13;7.13;;;3.70;;
75087;SDS011;63664;44.868;40.600;2022-10-22T02:27:40;8.00;;;3.63;;
75087;SDS011;63664;44.868;40.600;2022-10-22T02:30:24;7.40;;;4.63;;
75087;SDS011;63664;44.868;40.600;2022-10-22T02:33:10;7.82;;;3.83;;
75087;SDS011;63664;44.868;40.600;2022-10-22T02:35:45;6.28;;;4.72;;
75087;SDS011;63664;44.868;40.600;2022-10-22T02:38:13;6.15;;;4.50;;
75087;SDS011;63664;44.868;40.600;2022-10-22T02:40:39;6.00;;;3.67;;
75087;SDS011;63664;44.868;40.600;2022-10-22T02:43:06;7.68;;;4.63;;
75087;SDS011;63664;44.868;40.600;2022-10-22T02:45:33;6.20;;;4.40;;
75087;SDS011;63664;44.868;40.600;2022-10-22T02:47:59;8.60;;;4.30;;
75087;SDS011;63664;44.868;40.600;2022-10-22T02:50:26;6.13;;;4.15;;
75087;SDS011;63664;44.868;40.600;2022-10-22T02:52:53;6.35;;;4.13;;
75087;SDS011;63664;44.868;40.600;2022-10-22T02:55:23;4.72;;;3.85;;
75087;SDS011;63664;44.868;40.600;2022-10-22T02:57:49;6.95;;;3.88;;
75087;SDS011;63664;44.868;40.600;2022-10-22T03:00:15;5.93;;;3.83;;
75087;SDS011;63664;44.868;40.600;2022-10-22T03:02:45;6.15;;;4.15;;
75087;SDS011;63664;44.868;40.600;2022-10-22T03:05:11;5.32;;;3.70;;
75087;SDS011;63664;44.868;40.600;2022-10-22T03:07:40;8.93;;;3.78;;
75087;SDS011;63664;44.868;40.600;2022-10-22T03:10:06;7.13;;;3.65;;
75087;SDS011;63664;44.868;40.600;2022-10-22T03:12:33;7.88;;;3.70;;
75087;SDS011;63664;44.868;40.600;2022-10-22T03:14:59;4.97;;;3.30;;
75087;SDS011;63664;44.868;40.600;2022-10-22T03:17:26;9.75;;;4.93;;
75087;SDS011;63664;44.868;40.600;2022-10-22T03:19:52;6.07;;;4.70;;
75087;SDS011;63664;44.868;40.600;2022-10-22T03:22:25;6.20;;;4.28;;
75087;SDS011;63664;44.868;40.600;2022-10-22T03:24:56;5.57;;;4.22;;
75087;SDS011;63664;44.868;40.600;2022-10-22T03:27:27;5.63;;;4.38;;
75087;SDS011;63664;44.868;40.600;2022-10-22T03:29:53;8.40;;;4.70;;
75087;SDS011;63664;44.868;40.600;2022-10-22T03:32:21;6.25;;;4.15;;
75087;SDS011;63664;44.868;40.600;2022-10-22T03:34:47;9.23;;;4.30;;
75087;SDS011;63664;44.868;40.600;2022-10-22T03:37:14;6.63;;;4.30;;
75087;SDS011;63664;44.868;40.600;2022-10-22T03:39:44;4.75;;;3.40;;
75087;SDS011;63664;44.868;40.600;2022-10-22T03:42:11;6.50;;;4.20;;
75087;SDS011;63664;44.868;40.600;2022-10-22T03:44:38;6.07;;;3.88;;
75087;SDS011;63664;44.868;40.600;2022-10-22T03:47:16;5.60;;;4.15;;
75087;SDS011;63664;44.868;40.600;2022-10-22T03:49:42;9.75;;;4.95;;
75087;SDS011;63664;44.868;40.600;2022-10-22T03:52:12;13.10;;;5.78;;
75087;SDS011;63664;44.868;40.600;2022-10-22T03:54:42;7.78;;;5.28;;
75087;SDS011;63664;44.868;40.600;2022-10-22T03:59:43;9.93;;;4.93;;
75087;SDS011;63664;44.868;40.600;2022-10-22T04:02:11;8.43;;;5.38;;
75087;SDS011;63664;44.868;40.600;2022-10-22T04:04:39;11.82;;;4.97;;
75087;SDS011;63664;44.868;40.600;2022-10-22T04:07:05;6.50;;;5.18;;
75087;SDS011;63664;44.868;40.600;2022-10-22T04:09:33;7.50;;;4.65;;
75087;SDS011;63664;44.868;40.600;2022-10-22T04:12:00;5.15;;;3.88;;
75087;SDS011;63664;44.868;40.600;2022-10-22T04:14:26;7.75;;;4.20;;
75087;SDS011;63664;44.868;40.600;2022-10-22T04:16:53;17.13;;;4.63;;
75087;SDS011;63664;44.868;40.600;2022-10-22T04:19:19;9.13;;;4.97;;
75087;SDS011;63664;44.868;40.600;2022-10-22T04:21:45;6.07;;;4.20;;
75087;SDS011;63664;44.868;40.600;2022-10-22T04:24:11;7.53;;;4.40;;
75087;SDS011;63664;44.868;40.600;2022-10-22T04:26:37;9.15;;;3.80;;
75087;SDS011;63664;44.868;40.600;2022-10-22T04:29:05;8.98;;;4.47;;
75087;SDS011;63664;44.868;40.600;2022-10-22T04:31:32;11.52;;;4.13;;
75087;SDS011;63664;44.868;40.600;2022-10-22T04:33:59;8.52;;;5.60;;
75087;SDS011;63664;44.868;40.600;2022-10-22T04:36:26;9.50;;;5.45;;
75087;SDS011;63664;44.868;40.600;2022-10-22T04:38:57;7.55;;;4.95;;
75087;SDS011;63664;44.868;40.600;2022-10-22T04:41:26;6.57;;;4.47;;
75087;SDS011;63664;44.868;40.600;2022-10-22T04:43:58;12.40;;;5.85;;
75087;SDS011;63664;44.868;40.600;2022-10-22T04:46:25;14.38;;;6.97;;
75087;SDS011;63664;44.868;40.600;2022-10-22T04:48:55;17.58;;;6.90;;
75087;SDS011;63664;44.868;40.600;2022-10-22T04:51:22;14.90;;;6.78;;
75087;SDS011;63664;44.868;40.600;2022-10-22T04:53:50;11.80;;;5.70;;
75087;SDS011;63664;44.868;40.600;2022-10-22T04:56:18;12.88;;;6.60;;
75087;SDS011;63664;44.868;40.600;2022-10-22T04:58:46;11.38;;;5.88;;
75087;SDS011;63664;44.868;40.600;2022-10-22T05:01:17;10.85;;;6.32;;
75087;SDS011;63664;44.868;40.600;2022-10-22T05:03:55;10.73;;;5.80;;
75087;SDS011;63664;44.868;40.600;2022-10-22T05:06:24;10.32;;;7.03;;
75087;SDS011;63664;44.868;40.600;2022-10-22T05:08:52;16.83;;;8.60;;
75087;SDS011;63664;44.868;40.600;2022-10-22T05:11:21;14.82;;;7.78;;
75087;SDS011;63664;44.868;40.600;2022-10-22T05:13:50;13.45;;;7.30;;
75087;SDS011;63664;44.868;40.600;2022-10-22T05:16:16;18.48;;;9.90;;
75087;SDS011;63664;44.868;40.600;2022-10-22T05:18:43;11.95;;;7.03;;
75087;SDS011;63664;44.868;40.600;2022-10-22T05:21:10;18.77;;;9.65;;
75087;SDS011;63664;44.868;40.600;2022-10-22T05:23:44;14.75;;;7.95;;
75087;SDS011;63664;44.868;40.600;2022-10-22T05:26:13;13.30;;;7.82;;
75087;SDS011;63664;44.868;40.600;2022-10-22T05:28:42;11.18;;;6.50;;
75087;SDS011;63664;44.868;40.600;2022-10-22T05:31:09;10.60;;;6.60;;
75087;SDS011;63664;44.868;40.600;2022-10-22T05:33:37;12.95;;;7.07;;
75087;SDS011;63664;44.868;40.600;2022-10-22T05:36:04;14.70;;;6.97;;
75087;SDS011;63664;44.868;40.600;2022-10-22T05:38:32;14.40;;;8.27;;
75087;SDS011;63664;44.868;40.600;2022-10-22T05:41:07;10.77;;;7.28;;
75087;SDS011;63664;44.868;40.600;2022-10-22T05:43:36;8.18;;;4.90;;
75087;SDS011;63664;44.868;40.600;2022-10-22T05:46:03;6.13;;;4.63;;
75087;SDS011;63664;44.868;40.600;2022-10-22T05:48:32;7.10;;;4.53;;
75087;SDS011;63664;44.868;40.600;2022-10-22T05:51:09;10.40;;;5.32;;
75087;SDS011;63664;44.868;40.600;2022-10-22T05:53:38;7.10;;;4.82;;
75087;SDS011;63664;44.868;40.600;2022-10-22T05:56:14;6.18;;;4.10;;
75087;SDS011;63664;44.868;40.600;2022-10-22T05:58:41;10.93;;;4.90;;
75087;SDS011;63664;44.868;40.600;2022-10-22T06:03:40;7.30;;;4.70;;
75087;SDS011;63664;44.868;40.600;2022-10-22T06:06:13;8.63;;;5.47;;
75087;SDS011;63664;44.868;40.600;2022-10-22T06:08:52;9.73;;;5.03;;
75087;SDS011;63664;44.868;40.600;2022-10-22T06:11:23;7.53;;;4.95;;
75087;SDS011;63664;44.868;40.600;2022-10-22T06:13:50;7.80;;;4.63;;
75087;SDS011;63664;44.868;40.600;2022-10-22T06:16:17;7.65;;;4.10;;
75087;SDS011;63664;44.868;40.600;2022-10-22T06:18:43;5.97;;;4.05;;
75087;SDS011;63664;44.868;40.600;2022-10-22T06:21:10;7.43;;;4.70;;
75087;SDS011;63664;44.868;40.600;2022-10-22T06:23:39;9.05;;;4.68;;
75087;SDS011;63664;44.868;40.600;2022-10-22T06:26:08;4.00;;;2.97;;
75087;SDS011;63664;44.868;40.600;2022-10-22T06:28:35;6.40;;;3.50;;
75087;SDS011;63664;44.868;40.600;2022-10-22T06:31:02;7.00;;;3.80;;
75087;SDS011;63664;44.868;40.600;2022-10-22T06:33:30;6.82;;;2.88;;
75087;SDS011;63664;44.868;40.600;2022-10-22T06:36:05;8.18;;;2.97;;
75087;SDS011;63664;44.868;40.600;2022-10-22T06:38:37;3.80;;;2.65;;
75087;SDS011;63664;44.868;40.600;2022-10-22T06:41:11;2.88;;;1.83;;
75087;SDS011;63664;44.868;40.600;2022-10-22T06:43:44;3.55;;;1.80;;
75087;SDS011;63664;44.868;40.600;2022-10-22T06:46:15;2.65;;;2.20;;
75087;SDS011;63664;44.868;40.600;2022-10-22T06:48:48;2.38;;;1.75;;
75087;SDS011;63664;44.868;40.600;2022-10-22T06:51:19;3.50;;;1.92;;
75087;SDS011;63664;44.868;40.600;2022-10-22T06:53:45;2.95;;;2.10;;
75087;SDS011;63664;44.868;40.600;2022-10-22T06:56:14;3.47;;;2.20;;
75087;SDS011;63664;44.868;40.600;2022-10-22T06:58:48;2.92;;;2.15;;
75087;SDS011;63664;44.868;40.600;2022-10-22T07:01:16;3.40;;;2.03;;
75087;SDS011;63664;44.868;40.600;2022-10-22T07:03:44;2.83;;;1.83;;
75087;SDS011;63664;44.868;40.600;2022-10-22T07:06:12;2.20;;;1.67;;
75087;SDS011;63664;44.868;40.600;2022-10-22T07:08:39;1.92;;;1.50;;
75087;SDS011;63664;44.868;40.600;2022-10-22T07:11:11;2.28;;;1.50;;
75087;SDS011;63664;44.868;40.600;2022-10-22T07:13:40;4.88;;;1.77;;
75087;SDS011;63664;44.868;40.600;2022-10-22T07:16:07;2.95;;;1.73;;
75087;SDS011;63664;44.868;40.600;2022-10-22T07:18:34;3.88;;;1.80;;
75087;SDS011;63664;44.868;40.600;2022-10-22T07:21:02;2.35;;;1.70;;
75087;SDS011;63664;44.868;40.600;2022-10-22T07:23:30;2.78;;;1.67;;
75087;SDS011;63664;44.868;40.600;2022-10-22T07:25:56;2.03;;;1.40;;
75087;SDS011;63664;44.868;40.600;2022-10-22T07:28:23;2.58;;;1.73;;
75087;SDS011;63664;44.868;40.600;2022-10-22T07:30:50;2.58;;;1.70;;
75087;SDS011;63664;44.868;40.600;2022-10-22T07:33:16;2.75;;;1.52;;
75087;SDS011;63664;44.868;40.600;2022-10-22T07:35:42;3.08;;;1.58;;
75087;SDS011;63664;44.868;40.600;2022-10-22T07:38:10;4.32;;;1.50;;
75087;SDS011;63664;44.868;40.600;2022-10-22T07:40:36;1.80;;;1.20;;
75087;SDS011;63664;44.868;40.600;2022-10-22T07:43:03;2.08;;;1.27;;
75087;SDS011;63664;44.868;40.600;2022-10-22T07:45:32;2.40;;;1.40;;
75087;SDS011;63664;44.868;40.600;2022-10-22T07:47:58;3.50;;;1.20;;
75087;SDS011;63664;44.868;40.600;2022-10-22T07:50:27;1.92;;;1.40;;
75087;SDS011;63664;44.868;40.600;2022-10-22T07:52:54;2.05;;;1.40;;
75087;SDS011;63664;44.868;40.600;2022-10-22T07:55:21;1.98;;;1.23;;
75087;SDS011;63664;44.868;40.600;2022-10-22T07:57:48;2.13;;;1.30;;
75087;SDS011;63664;44.868;40.600;2022-10-22T08:00:14;2.33;;;1.25;;
75087;SDS011;63664;44.868;40.600;2022-10-22T08:02:44;1.80;;;1.20;;
75087;SDS011;63664;44.868;40.600;2022-10-22T08:05:10;1.75;;;1.00;;
75087;SDS011;63664;44.868;40.600;2022-10-22T08:07:41;2.72;;;1.35;;
75087;SDS011;63664;44.868;40.600;2022-10-22T08:10:08;2.88;;;1.30;;
75087;SDS011;63664;44.868;40.600;2022-10-22T08:12:36;2.92;;;1.60;;
75087;SDS011;63664;44.868;40.600;2022-10-22T08:15:05;4.25;;;1.83;;
75087;SDS011;63664;44.868;40.600;2022-10-22T08:17:32;3.38;;;1.60;;
75087;SDS011;63664;44.868;40.600;2022-10-22T08:19:58;2.05;;;1.30;;
75087;SDS011;63664;44.868;40.600;2022-10-22T08:22:24;1.73;;;1.00;;
75087;SDS011;63664;44.868;40.600;2022-10-22T08:24:51;3.35;;;1.52;;
75087;SDS011;63664;44.868;40.600;2022-10-22T08:27:18;1.85;;;1.10;;
75087;SDS011;63664;44.868;40.600;2022-10-22T08:29:45;2.50;;;1.40;;
75087;SDS011;63664;44.868;40.600;2022-10-22T08:32:14;2.35;;;1.10;;
75087;SDS011;63664;44.868;40.600;2022-10-22T08:34:42;1.48;;;1.08;;
75087;SDS011;63664;44.868;40.600;2022-10-22T08:37:08;2.63;;;1.35;;
75087;SDS011;63664;44.868;40.600;2022-10-22T08:39:39;2.33;;;1.20;;
75087;SDS011;63664;44.868;40.600;2022-10-22T08:45:06;1.48;;;1.02;;
75087;SDS011;63664;44.868;40.600;2022-10-22T08:48:16;2.20;;;1.08;;
75087;SDS011;63664;44.868;40.600;2022-10-22T08:51:06;6.00;;;1.10;;
75087;SDS011;63664;44.868;40.600;2022-10-22T08:53:40;2.58;;;1.20;;
75087;SDS011;63664;44.868;40.600;2022-10-22T08:56:17;2.13;;;0.98;;
75087;SDS011;63664;44.868;40.600;2022-10-22T09:01:43;1.60;;;1.00;;
75087;SDS011;63664;44.868;40.600;2022-10-22T09:06:51;1.80;;;1.10;;
75087;SDS011;63664;44.868;40.600;2022-10-22T09:09:20;2.30;;;1.10;;
75087;SDS011;63664;44.868;40.600;2022-10-22T09:11:47;1.90;;;1.10;;
75087;SDS011;63664;44.868;40.600;2022-10-22T09:24:48;2.60;;;1.27;;
75087;SDS011;63664;44.868;40.600;2022-10-22T09:27:27;2.55;;;1.50;;
75087;SDS011;63664;44.868;40.600;2022-10-22T09:29:59;1.60;;;1.27;;
75087;SDS011;63664;44.868;40.600;2022-10-22T09:32:26;1.98;;;1.40;;
75087;SDS011;63664;44.868;40.600;2022-10-22T09:34:56;3.53;;;1.33;;
75087;SDS011;63664;44.868;40.600;2022-10-22T09:37:24;2.67;;;1.30;;
75087;SDS011;63664;44.868;40.600;2022-10-22T09:39:55;2.65;;;1.60;;
75087;SDS011;63664;44.868;40.600;2022-10-22T09:42:31;2.53;;;1.23;;
75087;SDS011;63664;44.868;40.600;2022-10-22T09:44:59;1.80;;;1.13;;
75087;SDS011;63664;44.868;40.600;2022-10-22T09:47:27;2.25;;;1.23;;
75087;SDS011;63664;44.868;40.600;2022-10-22T09:52:35;3.65;;;1.40;;
75087;SDS011;63664;44.868;40.600;2022-10-22T09:55:12;4.07;;;1.30;;
75087;SDS011;63664;44.868;40.600;2022-10-22T10:00:09;1.95;;;1.17;;
75087;SDS011;63664;44.868;40.600;2022-10-22T10:02:40;4.82;;;1.38;;
75087;SDS011;63664;44.868;40.600;2022-10-22T10:05:11;1.52;;;0.90;;
75087;SDS011;63664;44.868;40.600;2022-10-22T10:07:44;2.08;;;1.20;;
75087;SDS011;63664;44.868;40.600;2022-10-22T10:10:18;5.28;;;1.15;;
75087;SDS011;63664;44.868;40.600;2022-10-22T10:13:08;2.58;;;0.93;;
75087;SDS011;63664;44.868;40.600;2022-10-22T10:21:29;24.08;;;9.25;;
75087;SDS011;63664;44.868;40.600;2022-10-22T10:41:30;2.45;;;1.33;;
75087;SDS011;63664;44.868;40.600;2022-10-22T10:47:01;1.80;;;0.90;;
75087;SDS011;63664;44.868;40.600;2022-10-22T10:49:45;2.35;;;1.10;;
75087;SDS011;63664;44.868;40.600;2022-10-22T10:52:31;4.43;;;1.17;;
75087;SDS011;63664;44.868;40.600;2022-10-22T10:55:17;3.65;;;1.33;;
75087;SDS011;63664;44.868;40.600;2022-10-22T11:00:40;1.95;;;1.23;;
75087;SDS011;63664;44.868;40.600;2022-10-22T11:06:31;2.22;;;1.25;;
75087;SDS011;63664;44.868;40.600;2022-10-22T11:09:13;1.48;;;1.20;;
75087;SDS011;63664;44.868;40.600;2022-10-22T11:12:12;2.22;;;1.35;;
75087;SDS011;63664;44.868;40.600;2022-10-22T11:15:29;1.90;;;1.30;;
75087;SDS011;63664;44.868;40.600;2022-10-22T11:17:47;3.83;;;1.13;;
75087;SDS011;63664;44.868;40.600;2022-10-22T11:20:19;2.65;;;1.70;;
75087;SDS011;63664;44.868;40.600;2022-10-22T11:23:01;2.03;;;1.33;;
75087;SDS011;63664;44.868;40.600;2022-10-22T11:25:43;2.72;;;1.50;;
75087;SDS011;63664;44.868;40.600;2022-10-22T11:28:13;2.28;;;1.42;;
75087;SDS011;63664;44.868;40.600;2022-10-22T11:30:42;2.05;;;1.20;;
75087;SDS011;63664;44.868;40.600;2022-10-22T11:33:13;4.03;;;2.20;;
75087;SDS011;63664;44.868;40.600;2022-10-22T11:35:44;2.10;;;1.23;;
75087;SDS011;63664;44.868;40.600;2022-10-22T11:38:13;1.92;;;1.48;;
75087;SDS011;63664;44.868;40.600;2022-10-22T11:40:58;3.42;;;1.13;;
75087;SDS011;63664;44.868;40.600;2022-10-22T11:43:30;2.10;;;1.20;;
75087;SDS011;63664;44.868;40.600;2022-10-22T11:46:53;3.55;;;1.08;;
75087;SDS011;63664;44.868;40.600;2022-10-22T11:49:02;1.50;;;0.93;;
75087;SDS011;63664;44.868;40.600;2022-10-22T11:51:38;1.50;;;0.95;;
75087;SDS011;63664;44.868;40.600;2022-10-22T11:57:18;2.80;;;1.20;;
75087;SDS011;63664;44.868;40.600;2022-10-22T12:05:15;1.52;;;1.08;;
75087;SDS011;63664;44.868;40.600;2022-10-22T12:13:55;2.38;;;1.25;;
75087;SDS011;63664;44.868;40.600;2022-10-22T12:19:23;3.05;;;1.23;;
75087;SDS011;63664;44.868;40.600;2022-10-22T12:21:53;2.92;;;0.90;;
75087;SDS011;63664;44.868;40.600;2022-10-22T12:24:23;2.17;;;1.10;;
75087;SDS011;63664;44.868;40.600;2022-10-22T12:26:59;2.78;;;1.20;;
75087;SDS011;63664;44.868;40.600;2022-10-22T12:29:25;2.55;;;1.30;;
75087;SDS011;63664;44.868;40.600;2022-10-22T12:31:53;4.38;;;1.20;;
75087;SDS011;63664;44.868;40.600;2022-10-22T12:34:21;4.22;;;1.50;;
75087;SDS011;63664;44.868;40.600;2022-10-22T12:36:50;1.95;;;1.13;;
75087;SDS011;63664;44.868;40.600;2022-10-22T12:39:19;2.50;;;1.15;;
75087;SDS011;63664;44.868;40.600;2022-10-22T12:41:51;1.40;;;0.88;;
75087;SDS011;63664;44.868;40.600;2022-10-22T12:44:20;2.67;;;1.40;;
75087;SDS011;63664;44.868;40.600;2022-10-22T12:46:46;2.20;;;1.20;;
75087;SDS011;63664;44.868;40.600;2022-10-22T12:49:20;3.67;;;1.50;;
75087;SDS011;63664;44.868;40.600;2022-10-22T12:51:50;3.03;;;1.30;;
75087;SDS011;63664;44.868;40.600;2022-10-22T12:54:27;2.28;;;1.30;;
75087;SDS011;63664;44.868;40.600;2022-10-22T12:56:56;5.57;;;1.67;;
75087;SDS011;63664;44.868;40.600;2022-10-22T12:59:24;4.82;;;1.38;;
75087;SDS011;63664;44.868;40.600;2022-10-22T13:01:59;2.55;;;1.38;;
75087;SDS011;63664;44.868;40.600;2022-10-22T13:12:33;3.92;;;1.40;;
75087;SDS011;63664;44.868;40.600;2022-10-22T13:17:48;2.00;;;1.20;;
75087;SDS011;63664;44.868;40.600;2022-10-22T13:20:23;3.63;;;1.40;;
75087;SDS011;63664;44.868;40.600;2022-10-22T13:22:59;2.45;;;1.27;;
75087;SDS011;63664;44.868;40.600;2022-10-22T13:25:31;2.25;;;1.25;;
75087;SDS011;63664;44.868;40.600;2022-10-22T13:30:37;2.15;;;1.27;;
75087;SDS011;63664;44.868;40.600;2022-10-22T13:33:18;2.42;;;1.50;;
75087;SDS011;63664;44.868;40.600;2022-10-22T13:35:57;2.53;;;1.40;;
75087;SDS011;63664;44.868;40.600;2022-10-22T13:38:24;2.70;;;1.40;;
75087;SDS011;63664;44.868;40.600;2022-10-22T13:40:52;2.50;;;1.48;;
75087;SDS011;63664;44.868;40.600;2022-10-22T13:43:19;4.28;;;1.58;;
75087;SDS011;63664;44.868;40.600;2022-10-22T13:45:46;3.75;;;1.67;;
75087;SDS011;63664;44.868;40.600;2022-10-22T13:48:17;3.50;;;1.50;;
75087;SDS011;63664;44.868;40.600;2022-10-22T13:50:49;5.55;;;1.73;;
75087;SDS011;63664;44.868;40.600;2022-10-22T13:53:18;10.15;;;2.00;;
75087;SDS011;63664;44.868;40.600;2022-10-22T13:55:47;6.47;;;1.70;;
75087;SDS011;63664;44.868;40.600;2022-10-22T13:58:16;6.03;;;1.85;;
75087;SDS011;63664;44.868;40.600;2022-10-22T14:00:50;4.82;;;1.70;;
75087;SDS011;63664;44.868;40.600;2022-10-22T14:03:29;4.95;;;2.00;;
75087;SDS011;63664;44.868;40.600;2022-10-22T14:05:57;16.00;;;2.33;;
75087;SDS011;63664;44.868;40.600;2022-10-22T14:08:25;4.30;;;1.60;;
75087;SDS011;63664;44.868;40.600;2022-10-22T14:10:53;2.50;;;1.67;;
75087;SDS011;63664;44.868;40.600;2022-10-22T14:13:26;3.53;;;2.00;;
75087;SDS011;63664;44.868;40.600;2022-10-22T14:15:52;9.02;;;2.15;;
75087;SDS011;63664;44.868;40.600;2022-10-22T14:18:22;4.32;;;1.83;;
75087;SDS011;63664;44.868;40.600;2022-10-22T14:20:54;5.35;;;2.00;;
75087;SDS011;63664;44.868;40.600;2022-10-22T14:25:50;4.07;;;2.10;;
75087;SDS011;63664;44.868;40.600;2022-10-22T14:28:16;3.35;;;2.05;;
75087;SDS011;63664;44.868;40.600;2022-10-22T14:30:43;3.47;;;2.05;;
75087;SDS011;63664;44.868;40.600;2022-10-22T14:33:17;4.63;;;2.20;;
75087;SDS011;63664;44.868;40.600;2022-10-22T14:38:13;4.60;;;2.20;;
75087;SDS011;63664;44.868;40.600;2022-10-22T14:40:49;7.28;;;3.60;;
75087;SDS011;63664;44.868;40.600;2022-10-22T14:45:53;13.45;;;5.55;;
75087;SDS011;63664;44.868;40.600;2022-10-22T14:48:19;17.40;;;6.35;;
75087;SDS011;63664;44.868;40.600;2022-10-22T14:50:46;12.73;;;4.72;;
75087;SDS011;63664;44.868;40.600;2022-10-22T14:53:13;12.02;;;5.68;;
75087;SDS011;63664;44.868;40.600;2022-10-22T14:55:41;12.60;;;6.78;;
75087;SDS011;63664;44.868;40.600;2022-10-22T14:58:09;17.08;;;7.45;;
75087;SDS011;63664;44.868;40.600;2022-10-22T15:00:37;15.10;;;7.35;;
75087;SDS011;63664;44.868;40.600;2022-10-22T15:03:06;15.98;;;7.53;;
75087;SDS011;63664;44.868;40.600;2022-10-22T15:05:33;19.40;;;7.60;;
75087;SDS011;63664;44.868;40.600;2022-10-22T15:08:01;19.23;;;7.22;;
75087;SDS011;63664;44.868;40.600;2022-10-22T15:10:27;25.70;;;8.30;;
75087;SDS011;63664;44.868;40.600;2022-10-22T15:12:53;23.77;;;9.77;;
75087;SDS011;63664;44.868;40.600;2022-10-22T15:15:20;46.28;;;10.73;;
75087;SDS011;63664;44.868;40.600;2022-10-22T15:17:46;64.03;;;14.70;;
75087;SDS011;63664;44.868;40.600;2022-10-22T15:20:12;95.50;;;37.63;;
75087;SDS011;63664;44.868;40.600;2022-10-22T15:22:38;56.80;;;12.88;;
75087;SDS011;63664;44.868;40.600;2022-10-22T15:25:06;36.10;;;11.57;;
75087;SDS011;63664;44.868;40.600;2022-10-22T15:27:33;47.75;;;11.65;;
75087;SDS011;63664;44.868;40.600;2022-10-22T15:30:00;36.03;;;12.27;;
75087;SDS011;63664;44.868;40.600;2022-10-22T15:32:26;37.90;;;11.15;;
75087;SDS011;63664;44.868;40.600;2022-10-22T15:34:53;33.80;;;11.23;;
75087;SDS011;63664;44.868;40.600;2022-10-22T15:37:20;31.58;;;10.52;;
75087;SDS011;63664;44.868;40.600;2022-10-22T15:39:47;32.13;;;10.48;;
75087;SDS011;63664;44.868;40.600;2022-10-22T15:42:13;28.90;;;11.35;;
75087;SDS011;63664;44.868;40.600;2022-10-22T15:44:40;24.58;;;10.88;;
75087;SDS011;63664;44.868;40.600;2022-10-22T15:47:08;24.10;;;8.93;;
75087;SDS011;63664;44.868;40.600;2022-10-22T15:49:35;20.45;;;9.43;;
75087;SDS011;63664;44.868;40.600;2022-10-22T15:52:04;26.13;;;7.88;;
75087;SDS011;63664;44.868;40.600;2022-10-22T15:54:38;20.92;;;7.20;;
75087;SDS011;63664;44.868;40.600;2022-10-22T15:57:05;21.33;;;7.22;;
75087;SDS011;63664;44.868;40.600;2022-10-22T15:59:33;25.17;;;7.63;;
75087;SDS011;63664;44.868;40.600;2022-10-22T16:02:00;26.00;;;8.70;;
75087;SDS011;63664;44.868;40.600;2022-10-22T16:04:27;29.13;;;8.77;;
75087;SDS011;63664;44.868;40.600;2022-10-22T16:06:53;21.55;;;8.02;;
75087;SDS011;63664;44.868;40.600;2022-10-22T16:09:21;23.73;;;8.82;;
75087;SDS011;63664;44.868;40.600;2022-10-22T16:11:51;23.50;;;7.65;;
75087;SDS011;63664;44.868;40.600;2022-10-22T16:14:19;20.70;;;8.55;;
75087;SDS011;63664;44.868;40.600;2022-10-22T16:16:47;25.08;;;8.63;;
75087;SDS011;63664;44.868;40.600;2022-10-22T16:19:17;20.63;;;8.85;;
75087;SDS011;63664;44.868;40.600;2022-10-22T16:21:47;20.60;;;10.20;;
75087;SDS011;63664;44.868;40.600;2022-10-22T16:24:15;24.25;;;9.27;;
75087;SDS011;63664;44.868;40.600;2022-10-22T16:26:42;23.73;;;9.15;;
75087;SDS011;63664;44.868;40.600;2022-10-22T16:29:10;26.58;;;9.18;;
75087;SDS011;63664;44.868;40.600;2022-10-22T16:31:37;25.50;;;9.70;;
75087;SDS011;63664;44.868;40.600;2022-10-22T16:34:05;27.25;;;9.65;;
75087;SDS011;63664;44.868;40.600;2022-10-22T16:36:32;22.85;;;9.32;;
75087;SDS011;63664;44.868;40.600;2022-10-22T16:39:02;19.83;;;8.13;;
75087;SDS011;63664;44.868;40.600;2022-10-22T16:41:28;23.88;;;8.93;;
75087;SDS011;63664;44.868;40.600;2022-10-22T16:44:04;21.17;;;8.55;;
75087;SDS011;63664;44.868;40.600;2022-10-22T16:46:32;34.88;;;13.95;;
75087;SDS011;63664;44.868;40.600;2022-10-22T16:49:01;36.63;;;13.10;;
75087;SDS011;63664;44.868;40.600;2022-10-22T16:51:27;29.05;;;11.45;;
75087;SDS011;63664;44.868;40.600;2022-10-22T16:53:54;35.15;;;10.77;;
75087;SDS011;63664;44.868;40.600;2022-10-22T16:56:22;34.40;;;11.70;;
75087;SDS011;63664;44.868;40.600;2022-10-22T16:58:53;25.90;;;9.68;;
75087;SDS011;63664;44.868;40.600;2022-10-22T17:01:22;28.30;;;9.60;;